sensor_id;sensor_type;location;lat;lon;timestamp;temperature;humidity
24678;DHT22;12800;53.094;8.778;2023-07-13T00:01:19;19.00;79.30
24678;DHT22;12800;53.094;8.778;2023-07-13T00:03:44;19.00;79.30
24678;DHT22;12800;53.094;8.778;2023-07-13T00:06:10;19.00;79.40
24678;DHT22;12800;53.094;8.778;2023-07-13T00:08:36;19.00;79.50
24678;DHT22;12800;53.094;8.778;2023-07-13T00:11:02;19.00;80.30
24678;DHT22;12800;53.094;8.778;2023-07-13T00:13:29;18.90;79.50
24678;DHT22;12800;53.094;8.778;2023-07-13T00:15:56;18.90;79.50
24678;DHT22;12800;53.094;8.778;2023-07-13T00:18:22;18.90;79.50
24678;DHT22;12800;53.094;8.778;2023-07-13T00:20:48;18.90;79.60
24678;DHT22;12800;53.094;8.778;2023-07-13T00:23:13;18.90;79.70
24678;DHT22;12800;53.094;8.778;2023-07-13T00:25:39;18.90;79.70
24678;DHT22;12800;53.094;8.778;2023-07-13T00:28:05;18.90;79.60
24678;DHT22;12800;53.094;8.778;2023-07-13T00:30:31;18.80;79.50
24678;DHT22;12800;53.094;8.778;2023-07-13T00:32:57;18.80;79.70
24678;DHT22;12800;53.094;8.778;2023-07-13T00:35:22;18.80;79.70
24678;DHT22;12800;53.094;8.778;2023-07-13T00:37:48;18.80;79.70
24678;DHT22;12800;53.094;8.778;2023-07-13T00:40:15;18.80;79.50
24678;DHT22;12800;53.094;8.778;2023-07-13T00:42:41;18.80;79.50
24678;DHT22;12800;53.094;8.778;2023-07-13T00:47:53;18.70;79.50
24678;DHT22;12800;53.094;8.778;2023-07-13T00:50:21;18.80;79.60
24678;DHT22;12800;53.094;8.778;2023-07-13T00:52:52;18.80;79.60
24678;DHT22;12800;53.094;8.778;2023-07-13T00:55:21;18.70;79.50
24678;DHT22;12800;53.094;8.778;2023-07-13T00:57:46;18.70;79.40
24678;DHT22;12800;53.094;8.778;2023-07-13T01:00:13;18.70;79.50
24678;DHT22;12800;53.094;8.778;2023-07-13T01:02:42;18.60;79.50
24678;DHT22;12800;53.094;8.778;2023-07-13T01:05:16;18.60;79.60
24678;DHT22;12800;53.094;8.778;2023-07-13T01:07:44;18.60;80.40
24678;DHT22;12800;53.094;8.778;2023-07-13T01:10:11;18.50;79.70
24678;DHT22;12800;53.094;8.778;2023-07-13T01:12:37;18.50;79.80
24678;DHT22;12800;53.094;8.778;2023-07-13T01:15:04;18.50;79.80
24678;DHT22;12800;53.094;8.778;2023-07-13T01:17:33;18.50;80.60
24678;DHT22;12800;53.094;8.778;2023-07-13T01:19:58;18.50;80.00
24678;DHT22;12800;53.094;8.778;2023-07-13T01:22:25;18.50;80.00
24678;DHT22;12800;53.094;8.778;2023-07-13T01:24:53;18.50;80.00
24678;DHT22;12800;53.094;8.778;2023-07-13T01:27:24;18.50;79.90
24678;DHT22;12800;53.094;8.778;2023-07-13T01:29:51;18.40;80.60
24678;DHT22;12800;53.094;8.778;2023-07-13T01:32:20;18.40;79.80
24678;DHT22;12800;53.094;8.778;2023-07-13T01:34:47;18.40;79.60
24678;DHT22;12800;53.094;8.778;2023-07-13T01:37:12;18.40;79.60
24678;DHT22;12800;53.094;8.778;2023-07-13T01:39:38;18.40;79.60
24678;DHT22;12800;53.094;8.778;2023-07-13T01:42:04;18.40;79.60
24678;DHT22;12800;53.094;8.778;2023-07-13T01:44:30;18.40;79.60
24678;DHT22;12800;53.094;8.778;2023-07-13T01:46:56;18.40;79.50
24678;DHT22;12800;53.094;8.778;2023-07-13T01:49:21;18.40;79.50
24678;DHT22;12800;53.094;8.778;2023-07-13T01:51:47;18.40;79.50
24678;DHT22;12800;53.094;8.778;2023-07-13T01:54:13;18.30;79.50
24678;DHT22;12800;53.094;8.778;2023-07-13T01:56:38;18.30;79.50
24678;DHT22;12800;53.094;8.778;2023-07-13T01:59:05;18.30;79.50
24678;DHT22;12800;53.094;8.778;2023-07-13T02:01:30;18.30;79.60
24678;DHT22;12800;53.094;8.778;2023-07-13T02:03:56;18.20;79.60
24678;DHT22;12800;53.094;8.778;2023-07-13T02:06:21;18.20;79.70
24678;DHT22;12800;53.094;8.778;2023-07-13T02:08:47;18.20;79.80
24678;DHT22;12800;53.094;8.778;2023-07-13T02:11:13;18.20;79.90
24678;DHT22;12800;53.094;8.778;2023-07-13T02:13:39;18.20;79.90
24678;DHT22;12800;53.094;8.778;2023-07-13T02:16:05;18.20;79.90
24678;DHT22;12800;53.094;8.778;2023-07-13T02:18:31;18.20;79.90
24678;DHT22;12800;53.094;8.778;2023-07-13T02:20:57;18.20;79.90
24678;DHT22;12800;53.094;8.778;2023-07-13T02:23:23;18.10;79.80
24678;DHT22;12800;53.094;8.778;2023-07-13T02:25:49;18.10;79.80
24678;DHT22;12800;53.094;8.778;2023-07-13T02:28:14;18.10;79.80
24678;DHT22;12800;53.094;8.778;2023-07-13T02:30:40;18.10;79.90
24678;DHT22;12800;53.094;8.778;2023-07-13T02:33:06;18.10;79.90
24678;DHT22;12800;53.094;8.778;2023-07-13T02:35:31;18.10;79.90
24678;DHT22;12800;53.094;8.778;2023-07-13T02:37:57;18.20;79.90
24678;DHT22;12800;53.094;8.778;2023-07-13T02:40:23;18.10;79.80
24678;DHT22;12800;53.094;8.778;2023-07-13T02:42:48;18.10;79.70
24678;DHT22;12800;53.094;8.778;2023-07-13T02:45:14;18.10;79.70
24678;DHT22;12800;53.094;8.778;2023-07-13T02:47:41;18.10;79.60
24678;DHT22;12800;53.094;8.778;2023-07-13T02:50:08;18.10;79.60
24678;DHT22;12800;53.094;8.778;2023-07-13T02:52:33;18.00;79.40
24678;DHT22;12800;53.094;8.778;2023-07-13T02:54:59;18.00;79.40
24678;DHT22;12800;53.094;8.778;2023-07-13T02:57:25;18.00;79.30
24678;DHT22;12800;53.094;8.778;2023-07-13T02:59:50;18.00;79.30
24678;DHT22;12800;53.094;8.778;2023-07-13T03:02:16;18.10;79.40
24678;DHT22;12800;53.094;8.778;2023-07-13T03:04:42;18.00;79.20
24678;DHT22;12800;53.094;8.778;2023-07-13T03:07:07;18.00;79.00
24678;DHT22;12800;53.094;8.778;2023-07-13T03:09:34;18.00;79.80
24678;DHT22;12800;53.094;8.778;2023-07-13T03:12:00;18.00;79.00
24678;DHT22;12800;53.094;8.778;2023-07-13T03:14:26;18.00;79.00
24678;DHT22;12800;53.094;8.778;2023-07-13T03:16:52;18.00;78.90
24678;DHT22;12800;53.094;8.778;2023-07-13T03:19:17;18.10;78.90
24678;DHT22;12800;53.094;8.778;2023-07-13T03:21:43;18.10;78.70
24678;DHT22;12800;53.094;8.778;2023-07-13T03:24:09;18.10;78.60
24678;DHT22;12800;53.094;8.778;2023-07-13T03:26:35;18.10;78.50
24678;DHT22;12800;53.094;8.778;2023-07-13T03:29:01;18.10;78.50
24678;DHT22;12800;53.094;8.778;2023-07-13T03:31:28;18.20;78.50
24678;DHT22;12800;53.094;8.778;2023-07-13T03:33:55;18.20;78.50
24678;DHT22;12800;53.094;8.778;2023-07-13T03:36:27;18.20;79.20
24678;DHT22;12800;53.094;8.778;2023-07-13T03:38:58;18.20;78.40
24678;DHT22;12800;53.094;8.778;2023-07-13T03:41:25;18.30;78.30
24678;DHT22;12800;53.094;8.778;2023-07-13T03:43:51;18.30;78.40
24678;DHT22;12800;53.094;8.778;2023-07-13T03:46:17;18.30;78.30
24678;DHT22;12800;53.094;8.778;2023-07-13T03:48:44;18.30;78.30
24678;DHT22;12800;53.094;8.778;2023-07-13T03:51:12;18.40;78.20
24678;DHT22;12800;53.094;8.778;2023-07-13T03:53:41;18.40;78.00
24678;DHT22;12800;53.094;8.778;2023-07-13T03:56:07;18.40;77.90
24678;DHT22;12800;53.094;8.778;2023-07-13T03:58:36;18.40;78.00
24678;DHT22;12800;53.094;8.778;2023-07-13T04:01:03;18.40;78.10
24678;DHT22;12800;53.094;8.778;2023-07-13T04:03:29;18.40;78.10
24678;DHT22;12800;53.094;8.778;2023-07-13T04:05:59;18.40;77.80
24678;DHT22;12800;53.094;8.778;2023-07-13T04:08:30;18.40;77.90
24678;DHT22;12800;53.094;8.778;2023-07-13T04:10:56;18.40;78.00
24678;DHT22;12800;53.094;8.778;2023-07-13T04:13:23;18.40;78.00
24678;DHT22;12800;53.094;8.778;2023-07-13T04:15:49;18.40;78.00
24678;DHT22;12800;53.094;8.778;2023-07-13T04:18:15;18.50;78.10
24678;DHT22;12800;53.094;8.778;2023-07-13T04:20:40;18.50;78.10
24678;DHT22;12800;53.094;8.778;2023-07-13T04:23:06;18.50;78.00
24678;DHT22;12800;53.094;8.778;2023-07-13T04:25:31;18.50;77.90
24678;DHT22;12800;53.094;8.778;2023-07-13T04:27:57;18.60;77.90
24678;DHT22;12800;53.094;8.778;2023-07-13T04:30:23;18.60;77.70
24678;DHT22;12800;53.094;8.778;2023-07-13T04:32:52;18.60;77.70
24678;DHT22;12800;53.094;8.778;2023-07-13T04:35:20;18.70;77.50
24678;DHT22;12800;53.094;8.778;2023-07-13T04:37:48;18.70;77.40
24678;DHT22;12800;53.094;8.778;2023-07-13T04:40:18;18.70;77.30
24678;DHT22;12800;53.094;8.778;2023-07-13T04:42:45;18.70;77.20
24678;DHT22;12800;53.094;8.778;2023-07-13T04:45:12;18.70;77.10
24678;DHT22;12800;53.094;8.778;2023-07-13T04:47:38;18.70;77.10
24678;DHT22;12800;53.094;8.778;2023-07-13T04:50:04;18.70;77.10
24678;DHT22;12800;53.094;8.778;2023-07-13T04:52:30;18.70;77.10
24678;DHT22;12800;53.094;8.778;2023-07-13T04:54:56;18.80;77.70
24678;DHT22;12800;53.094;8.778;2023-07-13T04:57:21;18.80;77.10
24678;DHT22;12800;53.094;8.778;2023-07-13T04:59:47;18.80;77.00
24678;DHT22;12800;53.094;8.778;2023-07-13T05:02:12;18.90;77.00
24678;DHT22;12800;53.094;8.778;2023-07-13T05:04:38;18.90;77.00
24678;DHT22;12800;53.094;8.778;2023-07-13T05:07:05;18.90;76.80
24678;DHT22;12800;53.094;8.778;2023-07-13T05:09:31;19.00;76.80
24678;DHT22;12800;53.094;8.778;2023-07-13T05:11:57;19.00;76.60
24678;DHT22;12800;53.094;8.778;2023-07-13T05:14:22;19.10;76.60
24678;DHT22;12800;53.094;8.778;2023-07-13T05:16:48;19.10;76.50
24678;DHT22;12800;53.094;8.778;2023-07-13T05:19:13;19.10;76.60
24678;DHT22;12800;53.094;8.778;2023-07-13T05:21:39;19.10;76.50
24678;DHT22;12800;53.094;8.778;2023-07-13T05:24:06;19.10;76.30
24678;DHT22;12800;53.094;8.778;2023-07-13T05:26:32;19.10;76.30
24678;DHT22;12800;53.094;8.778;2023-07-13T05:28:58;19.20;76.20
24678;DHT22;12800;53.094;8.778;2023-07-13T05:31:23;19.10;76.10
24678;DHT22;12800;53.094;8.778;2023-07-13T05:33:49;19.10;76.20
24678;DHT22;12800;53.094;8.778;2023-07-13T05:36:15;19.10;76.30
24678;DHT22;12800;53.094;8.778;2023-07-13T05:38:40;19.10;76.30
24678;DHT22;12800;53.094;8.778;2023-07-13T05:41:06;19.20;76.50
24678;DHT22;12800;53.094;8.778;2023-07-13T05:43:32;19.20;76.40
24678;DHT22;12800;53.094;8.778;2023-07-13T05:45:58;19.20;76.30
24678;DHT22;12800;53.094;8.778;2023-07-13T05:48:23;19.20;76.20
24678;DHT22;12800;53.094;8.778;2023-07-13T05:50:49;19.20;76.30
24678;DHT22;12800;53.094;8.778;2023-07-13T05:53:15;19.20;76.40
24678;DHT22;12800;53.094;8.778;2023-07-13T05:55:45;19.20;76.40
24678;DHT22;12800;53.094;8.778;2023-07-13T05:58:13;19.30;77.20
24678;DHT22;12800;53.094;8.778;2023-07-13T06:00:39;19.40;76.20
24678;DHT22;12800;53.094;8.778;2023-07-13T06:03:06;19.40;76.90
24678;DHT22;12800;53.094;8.778;2023-07-13T06:05:33;19.40;76.00
24678;DHT22;12800;53.094;8.778;2023-07-13T06:07:59;19.50;76.60
24678;DHT22;12800;53.094;8.778;2023-07-13T06:10:25;19.60;75.70
24678;DHT22;12800;53.094;8.778;2023-07-13T06:12:50;19.60;75.50
24678;DHT22;12800;53.094;8.778;2023-07-13T06:15:16;19.70;75.40
24678;DHT22;12800;53.094;8.778;2023-07-13T06:17:42;19.70;75.30
24678;DHT22;12800;53.094;8.778;2023-07-13T06:20:08;19.80;75.30
24678;DHT22;12800;53.094;8.778;2023-07-13T06:22:33;19.80;75.10
24678;DHT22;12800;53.094;8.778;2023-07-13T06:24:59;19.90;75.10
24678;DHT22;12800;53.094;8.778;2023-07-13T06:27:25;20.00;74.90
24678;DHT22;12800;53.094;8.778;2023-07-13T06:29:50;20.00;74.70
24678;DHT22;12800;53.094;8.778;2023-07-13T06:32:16;20.00;74.60
24678;DHT22;12800;53.094;8.778;2023-07-13T06:34:42;20.10;74.70
24678;DHT22;12800;53.094;8.778;2023-07-13T06:37:09;20.10;74.70
24678;DHT22;12800;53.094;8.778;2023-07-13T06:39:35;20.10;74.60
24678;DHT22;12800;53.094;8.778;2023-07-13T06:42:00;20.10;74.50
24678;DHT22;12800;53.094;8.778;2023-07-13T06:44:26;20.10;74.40
24678;DHT22;12800;53.094;8.778;2023-07-13T06:46:51;20.20;74.60
24678;DHT22;12800;53.094;8.778;2023-07-13T06:49:17;20.20;74.60
24678;DHT22;12800;53.094;8.778;2023-07-13T06:51:43;20.40;74.70
24678;DHT22;12800;53.094;8.778;2023-07-13T06:54:08;20.40;74.40
24678;DHT22;12800;53.094;8.778;2023-07-13T06:56:34;20.50;74.10
24678;DHT22;12800;53.094;8.778;2023-07-13T06:59:00;20.60;74.00
24678;DHT22;12800;53.094;8.778;2023-07-13T07:01:25;20.70;73.90
24678;DHT22;12800;53.094;8.778;2023-07-13T07:03:51;20.80;73.60
24678;DHT22;12800;53.094;8.778;2023-07-13T07:06:21;20.80;73.40
24678;DHT22;12800;53.094;8.778;2023-07-13T07:08:49;20.80;73.40
24678;DHT22;12800;53.094;8.778;2023-07-13T07:11:18;20.80;73.20
24678;DHT22;12800;53.094;8.778;2023-07-13T07:13:44;20.80;73.30
24678;DHT22;12800;53.094;8.778;2023-07-13T07:16:10;20.70;73.20
24678;DHT22;12800;53.094;8.778;2023-07-13T07:18:36;20.70;73.00
24678;DHT22;12800;53.094;8.778;2023-07-13T07:21:02;20.60;72.80
24678;DHT22;12800;53.094;8.778;2023-07-13T07:23:28;20.60;72.90
24678;DHT22;12800;53.094;8.778;2023-07-13T07:25:54;20.60;72.90
24678;DHT22;12800;53.094;8.778;2023-07-13T07:28:20;20.60;73.00
24678;DHT22;12800;53.094;8.778;2023-07-13T07:30:46;20.60;73.20
24678;DHT22;12800;53.094;8.778;2023-07-13T07:33:12;20.70;73.00
24678;DHT22;12800;53.094;8.778;2023-07-13T07:35:38;20.70;72.80
24678;DHT22;12800;53.094;8.778;2023-07-13T07:38:04;20.80;73.10
24678;DHT22;12800;53.094;8.778;2023-07-13T07:40:29;20.80;72.80
24678;DHT22;12800;53.094;8.778;2023-07-13T07:42:56;20.80;72.60
24678;DHT22;12800;53.094;8.778;2023-07-13T07:45:22;20.90;72.60
24678;DHT22;12800;53.094;8.778;2023-07-13T07:47:47;21.00;72.70
24678;DHT22;12800;53.094;8.778;2023-07-13T07:50:13;21.00;72.30
24678;DHT22;12800;53.094;8.778;2023-07-13T07:52:39;21.00;71.80
24678;DHT22;12800;53.094;8.778;2023-07-13T07:55:06;21.00;71.40
24678;DHT22;12800;53.094;8.778;2023-07-13T07:57:32;20.90;71.10
24678;DHT22;12800;53.094;8.778;2023-07-13T07:59:58;20.90;70.80
24678;DHT22;12800;53.094;8.778;2023-07-13T08:02:25;20.80;71.00
24678;DHT22;12800;53.094;8.778;2023-07-13T08:04:50;20.80;71.00
24678;DHT22;12800;53.094;8.778;2023-07-13T08:07:16;20.80;71.20
24678;DHT22;12800;53.094;8.778;2023-07-13T08:09:42;20.80;71.40
24678;DHT22;12800;53.094;8.778;2023-07-13T08:12:08;20.90;71.70
24678;DHT22;12800;53.094;8.778;2023-07-13T08:14:33;21.10;71.60
24678;DHT22;12800;53.094;8.778;2023-07-13T08:16:59;21.20;71.30
24678;DHT22;12800;53.094;8.778;2023-07-13T08:19:25;21.30;70.90
24678;DHT22;12800;53.094;8.778;2023-07-13T08:21:50;21.50;70.60
24678;DHT22;12800;53.094;8.778;2023-07-13T08:24:16;21.60;70.10
24678;DHT22;12800;53.094;8.778;2023-07-13T08:26:44;21.70;69.70
24678;DHT22;12800;53.094;8.778;2023-07-13T08:29:10;21.80;69.90
24678;DHT22;12800;53.094;8.778;2023-07-13T08:31:36;21.90;69.80
24678;DHT22;12800;53.094;8.778;2023-07-13T08:34:02;22.00;69.40
24678;DHT22;12800;53.094;8.778;2023-07-13T08:36:28;22.10;69.00
24678;DHT22;12800;53.094;8.778;2023-07-13T08:38:54;22.20;68.70
24678;DHT22;12800;53.094;8.778;2023-07-13T08:41:20;22.20;68.20
24678;DHT22;12800;53.094;8.778;2023-07-13T08:43:49;22.30;67.90
24678;DHT22;12800;53.094;8.778;2023-07-13T08:48:53;22.30;67.40
24678;DHT22;12800;53.094;8.778;2023-07-13T08:51:48;22.30;67.00
24678;DHT22;12800;53.094;8.778;2023-07-13T08:54:23;22.30;66.90
24678;DHT22;12800;53.094;8.778;2023-07-13T08:56:54;22.30;66.80
24678;DHT22;12800;53.094;8.778;2023-07-13T08:59:27;22.40;66.60
24678;DHT22;12800;53.094;8.778;2023-07-13T09:02:28;22.40;66.60
24678;DHT22;12800;53.094;8.778;2023-07-13T09:11:19;22.70;66.00
24678;DHT22;12800;53.094;8.778;2023-07-13T09:13:52;22.80;65.40
24678;DHT22;12800;53.094;8.778;2023-07-13T09:16:20;22.80;65.00
24678;DHT22;12800;53.094;8.778;2023-07-13T09:18:52;22.80;64.60
24678;DHT22;12800;53.094;8.778;2023-07-13T09:21:31;22.80;64.30
24678;DHT22;12800;53.094;8.778;2023-07-13T09:26:47;22.80;64.20
24678;DHT22;12800;53.094;8.778;2023-07-13T09:29:20;22.80;63.50
24678;DHT22;12800;53.094;8.778;2023-07-13T09:31:52;22.80;63.60
24678;DHT22;12800;53.094;8.778;2023-07-13T09:34:18;22.90;63.80
24678;DHT22;12800;53.094;8.778;2023-07-13T09:36:44;22.90;64.00
24678;DHT22;12800;53.094;8.778;2023-07-13T09:39:35;23.00;64.00
24678;DHT22;12800;53.094;8.778;2023-07-13T09:44:38;23.10;64.10
24678;DHT22;12800;53.094;8.778;2023-07-13T09:47:16;23.10;63.40
24678;DHT22;12800;53.094;8.778;2023-07-13T09:49:42;23.20;62.90
24678;DHT22;12800;53.094;8.778;2023-07-13T09:52:13;23.20;62.60
24678;DHT22;12800;53.094;8.778;2023-07-13T09:54:43;23.30;62.40
24678;DHT22;12800;53.094;8.778;2023-07-13T09:57:18;23.50;61.60
24678;DHT22;12800;53.094;8.778;2023-07-13T09:59:46;23.60;61.10
24678;DHT22;12800;53.094;8.778;2023-07-13T10:02:31;23.60;60.10
24678;DHT22;12800;53.094;8.778;2023-07-13T10:05:06;23.60;60.70
24678;DHT22;12800;53.094;8.778;2023-07-13T10:07:38;23.60;59.60
24678;DHT22;12800;53.094;8.778;2023-07-13T10:10:14;23.50;59.10
24678;DHT22;12800;53.094;8.778;2023-07-13T10:12:40;23.40;58.90
24678;DHT22;12800;53.094;8.778;2023-07-13T10:15:15;23.30;58.70
24678;DHT22;12800;53.094;8.778;2023-07-13T10:17:41;23.30;58.80
24678;DHT22;12800;53.094;8.778;2023-07-13T10:20:07;23.20;59.30
24678;DHT22;12800;53.094;8.778;2023-07-13T10:22:49;23.20;59.60
24678;DHT22;12800;53.094;8.778;2023-07-13T10:25:21;23.20;58.90
24678;DHT22;12800;53.094;8.778;2023-07-13T10:27:51;23.20;58.80
24678;DHT22;12800;53.094;8.778;2023-07-13T10:30:39;23.30;58.90
24678;DHT22;12800;53.094;8.778;2023-07-13T10:33:10;23.30;58.80
24678;DHT22;12800;53.094;8.778;2023-07-13T10:35:38;23.30;59.10
24678;DHT22;12800;53.094;8.778;2023-07-13T10:38:11;23.40;59.40
24678;DHT22;12800;53.094;8.778;2023-07-13T10:40:40;23.40;59.10
24678;DHT22;12800;53.094;8.778;2023-07-13T10:43:38;23.40;58.90
24678;DHT22;12800;53.094;8.778;2023-07-13T10:46:10;23.40;59.60
24678;DHT22;12800;53.094;8.778;2023-07-13T10:48:37;23.20;59.70
24678;DHT22;12800;53.094;8.778;2023-07-13T10:51:05;23.00;59.50
24678;DHT22;12800;53.094;8.778;2023-07-13T10:53:37;22.80;60.00
24678;DHT22;12800;53.094;8.778;2023-07-13T10:56:28;22.70;59.70
24678;DHT22;12800;53.094;8.778;2023-07-13T10:59:11;22.60;60.00
24678;DHT22;12800;53.094;8.778;2023-07-13T11:04:13;22.30;59.70
24678;DHT22;12800;53.094;8.778;2023-07-13T11:06:41;22.30;60.40
24678;DHT22;12800;53.094;8.778;2023-07-13T11:09:35;22.20;60.70
24678;DHT22;12800;53.094;8.778;2023-07-13T11:12:25;22.10;61.40
24678;DHT22;12800;53.094;8.778;2023-07-13T11:17:34;22.00;63.40
24678;DHT22;12800;53.094;8.778;2023-07-13T11:22:50;21.80;65.70
24678;DHT22;12800;53.094;8.778;2023-07-13T11:25:27;21.80;66.70
24678;DHT22;12800;53.094;8.778;2023-07-13T11:30:48;21.90;66.80
24678;DHT22;12800;53.094;8.778;2023-07-13T11:33:28;21.90;66.90
24678;DHT22;12800;53.094;8.778;2023-07-13T11:36:05;21.90;67.10
24678;DHT22;12800;53.094;8.778;2023-07-13T11:38:43;22.00;66.80
24678;DHT22;12800;53.094;8.778;2023-07-13T11:43:43;21.90;66.40
24678;DHT22;12800;53.094;8.778;2023-07-13T11:46:24;21.80;64.30
24678;DHT22;12800;53.094;8.778;2023-07-13T11:48:51;21.50;63.10
24678;DHT22;12800;53.094;8.778;2023-07-13T11:51:23;21.30;63.60
24678;DHT22;12800;53.094;8.778;2023-07-13T11:53:53;21.10;64.90
24678;DHT22;12800;53.094;8.778;2023-07-13T11:56:19;20.80;65.30
24678;DHT22;12800;53.094;8.778;2023-07-13T11:58:51;20.60;66.20
24678;DHT22;12800;53.094;8.778;2023-07-13T12:01:26;20.50;66.40
24678;DHT22;12800;53.094;8.778;2023-07-13T12:04:00;20.20;66.90
24678;DHT22;12800;53.094;8.778;2023-07-13T12:06:31;20.00;67.60
24678;DHT22;12800;53.094;8.778;2023-07-13T12:09:02;19.80;68.40
24678;DHT22;12800;53.094;8.778;2023-07-13T12:11:29;19.70;69.70
24678;DHT22;12800;53.094;8.778;2023-07-13T12:13:55;19.50;70.20
24678;DHT22;12800;53.094;8.778;2023-07-13T12:16:28;19.30;71.00
24678;DHT22;12800;53.094;8.778;2023-07-13T12:18:56;19.20;72.10
24678;DHT22;12800;53.094;8.778;2023-07-13T12:21:27;19.20;72.70
24678;DHT22;12800;53.094;8.778;2023-07-13T12:23:55;19.20;73.50
24678;DHT22;12800;53.094;8.778;2023-07-13T12:26:20;19.20;73.90
24678;DHT22;12800;53.094;8.778;2023-07-13T12:28:52;19.20;73.50
24678;DHT22;12800;53.094;8.778;2023-07-13T12:31:39;19.10;73.50
24678;DHT22;12800;53.094;8.778;2023-07-13T12:34:14;19.10;73.80
24678;DHT22;12800;53.094;8.778;2023-07-13T12:37:01;19.20;74.30
24678;DHT22;12800;53.094;8.778;2023-07-13T12:45:03;19.60;75.00
24678;DHT22;12800;53.094;8.778;2023-07-13T12:47:40;19.70;74.80
24678;DHT22;12800;53.094;8.778;2023-07-13T12:50:21;19.90;74.90
24678;DHT22;12800;53.094;8.778;2023-07-13T12:52:56;20.00;74.60
24678;DHT22;12800;53.094;8.778;2023-07-13T12:55:23;20.20;74.20
24678;DHT22;12800;53.094;8.778;2023-07-13T12:57:54;20.30;73.90
24678;DHT22;12800;53.094;8.778;2023-07-13T13:00:28;20.30;73.60
24678;DHT22;12800;53.094;8.778;2023-07-13T13:02:56;20.40;73.70
24678;DHT22;12800;53.094;8.778;2023-07-13T13:05:25;20.50;73.20
24678;DHT22;12800;53.094;8.778;2023-07-13T13:07:52;20.60;72.90
24678;DHT22;12800;53.094;8.778;2023-07-13T13:10:17;20.60;72.90
24678;DHT22;12800;53.094;8.778;2023-07-13T13:12:43;20.70;71.90
24678;DHT22;12800;53.094;8.778;2023-07-13T13:15:10;20.80;71.30
24678;DHT22;12800;53.094;8.778;2023-07-13T13:17:37;21.00;71.10
24678;DHT22;12800;53.094;8.778;2023-07-13T13:20:18;21.20;70.20
24678;DHT22;12800;53.094;8.778;2023-07-13T13:22:44;21.50;70.10
24678;DHT22;12800;53.094;8.778;2023-07-13T13:25:14;21.70;69.30
24678;DHT22;12800;53.094;8.778;2023-07-13T13:27:41;22.00;68.40
24678;DHT22;12800;53.094;8.778;2023-07-13T13:30:12;22.20;68.10
24678;DHT22;12800;53.094;8.778;2023-07-13T13:32:39;22.60;67.50
24678;DHT22;12800;53.094;8.778;2023-07-13T13:35:12;22.70;66.10
24678;DHT22;12800;53.094;8.778;2023-07-13T13:37:38;22.80;66.00
24678;DHT22;12800;53.094;8.778;2023-07-13T13:40:15;22.80;63.90
24678;DHT22;12800;53.094;8.778;2023-07-13T13:42:41;22.60;63.10
24678;DHT22;12800;53.094;8.778;2023-07-13T13:45:09;22.50;63.30
24678;DHT22;12800;53.094;8.778;2023-07-13T13:47:35;22.40;63.70
24678;DHT22;12800;53.094;8.778;2023-07-13T13:50:13;22.30;63.90
24678;DHT22;12800;53.094;8.778;2023-07-13T13:52:40;22.20;64.70
24678;DHT22;12800;53.094;8.778;2023-07-13T13:55:20;22.10;64.80
24678;DHT22;12800;53.094;8.778;2023-07-13T13:57:47;22.00;64.60
24678;DHT22;12800;53.094;8.778;2023-07-13T14:00:14;22.00;65.40
24678;DHT22;12800;53.094;8.778;2023-07-13T14:02:47;22.10;66.10
24678;DHT22;12800;53.094;8.778;2023-07-13T14:05:21;22.30;65.90
24678;DHT22;12800;53.094;8.778;2023-07-13T14:07:47;22.50;65.40
24678;DHT22;12800;53.094;8.778;2023-07-13T14:10:17;22.80;64.80
24678;DHT22;12800;53.094;8.778;2023-07-13T14:12:45;23.00;64.60
24678;DHT22;12800;53.094;8.778;2023-07-13T14:15:32;23.20;64.30
24678;DHT22;12800;53.094;8.778;2023-07-13T14:17:59;23.40;63.70
24678;DHT22;12800;53.094;8.778;2023-07-13T14:20:25;23.60;63.40
24678;DHT22;12800;53.094;8.778;2023-07-13T14:22:52;23.90;62.90
24678;DHT22;12800;53.094;8.778;2023-07-13T14:25:20;24.10;62.50
24678;DHT22;12800;53.094;8.778;2023-07-13T14:27:48;24.30;61.80
24678;DHT22;12800;53.094;8.778;2023-07-13T14:30:20;24.60;61.00
24678;DHT22;12800;53.094;8.778;2023-07-13T14:32:46;24.90;60.70
24678;DHT22;12800;53.094;8.778;2023-07-13T14:35:17;25.30;59.70
24678;DHT22;12800;53.094;8.778;2023-07-13T14:37:44;25.60;59.00
24678;DHT22;12800;53.094;8.778;2023-07-13T14:40:17;25.60;58.10
24678;DHT22;12800;53.094;8.778;2023-07-13T14:42:43;25.50;57.50
24678;DHT22;12800;53.094;8.778;2023-07-13T14:45:14;25.40;57.10
24678;DHT22;12800;53.094;8.778;2023-07-13T14:47:40;25.30;57.50
24678;DHT22;12800;53.094;8.778;2023-07-13T14:50:16;25.20;58.10
24678;DHT22;12800;53.094;8.778;2023-07-13T14:52:43;25.20;58.60
24678;DHT22;12800;53.094;8.778;2023-07-13T14:55:12;25.20;58.90
24678;DHT22;12800;53.094;8.778;2023-07-13T14:57:38;25.30;59.10
24678;DHT22;12800;53.094;8.778;2023-07-13T15:00:21;25.10;58.70
24678;DHT22;12800;53.094;8.778;2023-07-13T15:02:55;24.90;58.30
24678;DHT22;12800;53.094;8.778;2023-07-13T15:05:24;24.60;59.00
24678;DHT22;12800;53.094;8.778;2023-07-13T15:07:51;24.20;58.60
24678;DHT22;12800;53.094;8.778;2023-07-13T15:10:29;23.80;58.30
24678;DHT22;12800;53.094;8.778;2023-07-13T15:13:17;23.20;59.00
24678;DHT22;12800;53.094;8.778;2023-07-13T15:15:46;22.50;62.90
24678;DHT22;12800;53.094;8.778;2023-07-13T15:18:15;22.00;63.60
24678;DHT22;12800;53.094;8.778;2023-07-13T15:20:43;21.50;64.20
24678;DHT22;12800;53.094;8.778;2023-07-13T15:23:14;21.00;65.00
24678;DHT22;12800;53.094;8.778;2023-07-13T15:25:41;20.70;65.70
24678;DHT22;12800;53.094;8.778;2023-07-13T15:28:07;20.30;66.00
24678;DHT22;12800;53.094;8.778;2023-07-13T15:33:21;19.80;68.80
24678;DHT22;12800;53.094;8.778;2023-07-13T15:35:48;19.70;69.90
24678;DHT22;12800;53.094;8.778;2023-07-13T15:38:19;19.50;70.30
24678;DHT22;12800;53.094;8.778;2023-07-13T15:40:46;19.40;72.00
24678;DHT22;12800;53.094;8.778;2023-07-13T15:43:12;19.30;72.50
24678;DHT22;12800;53.094;8.778;2023-07-13T15:45:39;19.30;73.20
24678;DHT22;12800;53.094;8.778;2023-07-13T15:48:25;19.20;73.10
24678;DHT22;12800;53.094;8.778;2023-07-13T15:50:54;19.20;73.10
24678;DHT22;12800;53.094;8.778;2023-07-13T15:53:24;19.20;74.10
24678;DHT22;12800;53.094;8.778;2023-07-13T15:55:50;19.20;74.50
24678;DHT22;12800;53.094;8.778;2023-07-13T15:58:17;19.20;74.90
24678;DHT22;12800;53.094;8.778;2023-07-13T16:00:44;19.20;74.70
24678;DHT22;12800;53.094;8.778;2023-07-13T16:03:10;19.20;75.40
24678;DHT22;12800;53.094;8.778;2023-07-13T16:05:36;19.10;75.60
24678;DHT22;12800;53.094;8.778;2023-07-13T16:08:04;19.10;75.50
24678;DHT22;12800;53.094;8.778;2023-07-13T16:12:58;19.00;76.70
24678;DHT22;12800;53.094;8.778;2023-07-13T16:15:24;19.00;77.30
24678;DHT22;12800;53.094;8.778;2023-07-13T16:17:49;19.00;77.60
24678;DHT22;12800;53.094;8.778;2023-07-13T16:20:17;19.00;78.30